Current Weather

Luke Afb

Glendale, Arizona (KLUF)

Report from: Thursday, July 18, 2024 5:55 AM MST
Current time: Thursday, July 18, 2024 6:17 AM MST

Nearby weather – Weather history – Daily summaries
Weather forecast

Temperature33.0°C (91.4°F)
Heat index32.3°C (90.1°F)
Dew point14.1°C (57.4°F)
Winds Calm
Visibility10 mi. (16.1 km)
Clouds Ceiling: Broken clouds 15,000 ft. (4,572 m)
Altimeter29.88 in.Hg (1012 mB)
Relative humidity32 %
Density altitude2,384 ft. (727 m)
Sea-level pressure101.0 kPa (1010 mB, 29.83 in.Hg)
Remarks Fully automated report
System requires maintenance
Automated weather observing station with precipitation discriminator
Lightning observed
Distant southeast
Flight conditions Visual Meteorological Conditions
Raw dataKLUF 181255Z AUTO 00000KT 10SM BKN150 33/14 A2988 RMK AO2 LTG DSNT SE SLP100 T03300141 $
An error has occurred. This application may no longer respond until reloaded. Reload 🗙